sensor_id;sensor_type;location;lat;lon;timestamp;pressure;altitude;pressure_sealevel;temperature;humidity
65872;BME280;52653;50.080;21.992;2022-09-09T00:00:14;98827.21;;;17.12;84.34
65872;BME280;52653;50.080;21.992;2022-09-09T00:03:30;98822.22;;;17.04;84.79
65872;BME280;52653;50.080;21.992;2022-09-09T00:06:27;98817.30;;;16.94;85.31
65872;BME280;52653;50.080;21.992;2022-09-09T00:09:15;98816.16;;;16.87;85.29
65872;BME280;52653;50.080;21.992;2022-09-09T00:12:12;98815.64;;;16.83;85.41
65872;BME280;52653;50.080;21.992;2022-09-09T00:15:13;98820.02;;;16.79;85.86
65872;BME280;52653;50.080;21.992;2022-09-09T00:17:52;98823.84;;;16.77;85.84
65872;BME280;52653;50.080;21.992;2022-09-09T00:20:49;98823.32;;;16.77;86.07
65872;BME280;52653;50.080;21.992;2022-09-09T00:23:48;98829.52;;;16.81;86.01
65872;BME280;52653;50.080;21.992;2022-09-09T00:26:45;98834.84;;;16.85;86.07
65872;BME280;52653;50.080;21.992;2022-09-09T00:29:41;98836.55;;;16.83;85.88
65872;BME280;52653;50.080;21.992;2022-09-09T00:32:36;98837.95;;;16.83;86.14
65872;BME280;52653;50.080;21.992;2022-09-09T00:35:31;98835.48;;;16.87;86.41
65872;BME280;52653;50.080;21.992;2022-09-09T00:38:27;98841.74;;;16.90;86.23
65872;BME280;52653;50.080;21.992;2022-09-09T00:41:26;98841.97;;;16.93;86.33
65872;BME280;52653;50.080;21.992;2022-09-09T00:44:31;98833.27;;;16.98;86.29
65872;BME280;52653;50.080;21.992;2022-09-09T00:47:40;98835.06;;;17.02;86.04
65872;BME280;52653;50.080;21.992;2022-09-09T00:50:28;98831.65;;;17.04;85.86
65872;BME280;52653;50.080;21.992;2022-09-09T00:53:33;98828.81;;;17.03;85.70
65872;BME280;52653;50.080;21.992;2022-09-09T00:56:30;98833.46;;;17.02;85.59
65872;BME280;52653;50.080;21.992;2022-09-09T00:59:24;98832.88;;;16.99;85.78
65872;BME280;52653;50.080;21.992;2022-09-09T01:02:27;98827.23;;;16.98;85.78
65872;BME280;52653;50.080;21.992;2022-09-09T01:05:25;98831.95;;;16.96;85.83
65872;BME280;52653;50.080;21.992;2022-09-09T01:08:25;98832.52;;;16.95;85.85
65872;BME280;52653;50.080;21.992;2022-09-09T01:11:15;98833.06;;;16.94;86.03
65872;BME280;52653;50.080;21.992;2022-09-09T01:14:22;98836.06;;;16.91;85.73
65872;BME280;52653;50.080;21.992;2022-09-09T01:17:19;98838.54;;;16.86;85.95
65872;BME280;52653;50.080;21.992;2022-09-09T01:20:15;98839.14;;;16.84;86.18
65872;BME280;52653;50.080;21.992;2022-09-09T01:23:24;98841.05;;;16.85;86.32
65872;BME280;52653;50.080;21.992;2022-09-09T01:26:29;98842.72;;;16.88;86.30
65872;BME280;52653;50.080;21.992;2022-09-09T01:29:17;98844.56;;;16.91;86.33
65872;BME280;52653;50.080;21.992;2022-09-09T01:32:39;98840.38;;;16.94;86.18
65872;BME280;52653;50.080;21.992;2022-09-09T01:35:42;98842.21;;;16.96;86.03
65872;BME280;52653;50.080;21.992;2022-09-09T01:38:38;98844.67;;;17.01;86.00
65872;BME280;52653;50.080;21.992;2022-09-09T01:41:30;98843.65;;;17.05;85.90
65872;BME280;52653;50.080;21.992;2022-09-09T01:44:23;98844.02;;;17.09;85.72
65872;BME280;52653;50.080;21.992;2022-09-09T01:46:59;98847.66;;;17.11;85.71
65872;BME280;52653;50.080;21.992;2022-09-09T01:49:51;98852.39;;;17.12;85.67
65872;BME280;52653;50.080;21.992;2022-09-09T01:52:44;98853.70;;;17.15;85.49
65872;BME280;52653;50.080;21.992;2022-09-09T01:55:40;98852.23;;;17.17;85.31
65872;BME280;52653;50.080;21.992;2022-09-09T01:58:37;98852.89;;;17.18;85.18
65872;BME280;52653;50.080;21.992;2022-09-09T02:01:21;98857.23;;;17.20;85.16
65872;BME280;52653;50.080;21.992;2022-09-09T02:04:27;98854.27;;;17.19;85.05
65872;BME280;52653;50.080;21.992;2022-09-09T02:07:25;98852.01;;;17.18;85.00
65872;BME280;52653;50.080;21.992;2022-09-09T02:10:09;98852.91;;;17.21;85.16
65872;BME280;52653;50.080;21.992;2022-09-09T02:13:05;98851.91;;;17.24;84.87
65872;BME280;52653;50.080;21.992;2022-09-09T02:15:50;98851.94;;;17.23;84.66
65872;BME280;52653;50.080;21.992;2022-09-09T02:18:47;98848.66;;;17.21;84.49
65872;BME280;52653;50.080;21.992;2022-09-09T02:21:41;98847.33;;;17.19;84.46
65872;BME280;52653;50.080;21.992;2022-09-09T02:24:37;98846.19;;;17.12;84.35
65872;BME280;52653;50.080;21.992;2022-09-09T02:27:30;98843.71;;;17.07;84.51
65872;BME280;52653;50.080;21.992;2022-09-09T02:30:22;98844.36;;;17.05;84.58
65872;BME280;52653;50.080;21.992;2022-09-09T02:33:15;98845.85;;;17.08;84.50
65872;BME280;52653;50.080;21.992;2022-09-09T02:36:10;98840.02;;;17.07;84.29
65872;BME280;52653;50.080;21.992;2022-09-09T02:38:47;98843.58;;;17.07;84.22
65872;BME280;52653;50.080;21.992;2022-09-09T02:41:43;98849.50;;;17.09;84.39
65872;BME280;52653;50.080;21.992;2022-09-09T02:44:36;98851.67;;;17.08;84.23
65872;BME280;52653;50.080;21.992;2022-09-09T02:47:33;98848.18;;;17.06;84.09
65872;BME280;52653;50.080;21.992;2022-09-09T02:50:31;98847.61;;;17.03;84.18
65872;BME280;52653;50.080;21.992;2022-09-09T02:53:29;98850.27;;;17.08;84.29
65872;BME280;52653;50.080;21.992;2022-09-09T02:56:27;98852.66;;;17.10;84.20
65872;BME280;52653;50.080;21.992;2022-09-09T02:59:24;98855.84;;;17.10;84.20
65872;BME280;52653;50.080;21.992;2022-09-09T03:02:06;98852.38;;;17.12;84.44
65872;BME280;52653;50.080;21.992;2022-09-09T03:05:01;98853.75;;;17.09;84.14
65872;BME280;52653;50.080;21.992;2022-09-09T03:07:53;98854.38;;;17.07;84.21
65872;BME280;52653;50.080;21.992;2022-09-09T03:10:45;98858.52;;;17.05;84.22
65872;BME280;52653;50.080;21.992;2022-09-09T03:13:37;98864.42;;;17.04;84.25
65872;BME280;52653;50.080;21.992;2022-09-09T03:16:29;98865.11;;;16.99;84.19
65872;BME280;52653;50.080;21.992;2022-09-09T03:19:22;98864.38;;;17.00;84.71
65872;BME280;52653;50.080;21.992;2022-09-09T03:22:13;98863.85;;;17.00;84.63
65872;BME280;52653;50.080;21.992;2022-09-09T03:25:06;98857.24;;;16.97;84.67
65872;BME280;52653;50.080;21.992;2022-09-09T03:27:47;98856.17;;;16.93;84.76
65872;BME280;52653;50.080;21.992;2022-09-09T03:30:40;98857.02;;;16.89;84.67
65872;BME280;52653;50.080;21.992;2022-09-09T03:33:32;98860.88;;;16.90;85.14
65872;BME280;52653;50.080;21.992;2022-09-09T03:36:25;98859.14;;;16.98;85.10
65872;BME280;52653;50.080;21.992;2022-09-09T03:39:18;98864.95;;;17.04;84.99
65872;BME280;52653;50.080;21.992;2022-09-09T03:42:13;98868.88;;;17.08;84.79
65872;BME280;52653;50.080;21.992;2022-09-09T03:45:10;98865.11;;;17.04;84.66
65872;BME280;52653;50.080;21.992;2022-09-09T03:47:53;98860.58;;;17.02;84.60
65872;BME280;52653;50.080;21.992;2022-09-09T03:50:47;98862.23;;;17.05;84.89
65872;BME280;52653;50.080;21.992;2022-09-09T03:53:39;98865.55;;;17.06;84.67
65872;BME280;52653;50.080;21.992;2022-09-09T03:56:31;98863.69;;;17.04;84.61
65872;BME280;52653;50.080;21.992;2022-09-09T03:59:23;98864.26;;;17.03;84.57
65872;BME280;52653;50.080;21.992;2022-09-09T04:02:15;98863.54;;;17.03;84.53
65872;BME280;52653;50.080;21.992;2022-09-09T04:05:08;98862.14;;;16.98;84.22
65872;BME280;52653;50.080;21.992;2022-09-09T04:08:00;98861.75;;;16.90;84.39
65872;BME280;52653;50.080;21.992;2022-09-09T04:10:53;98861.67;;;16.83;84.51
65872;BME280;52653;50.080;21.992;2022-09-09T04:13:31;98862.72;;;16.79;84.67
65872;BME280;52653;50.080;21.992;2022-09-09T04:16:23;98858.15;;;16.73;84.79
65872;BME280;52653;50.080;21.992;2022-09-09T04:18:58;98863.41;;;16.70;84.86
65872;BME280;52653;50.080;21.992;2022-09-09T04:21:52;98864.02;;;16.68;84.89
65872;BME280;52653;50.080;21.992;2022-09-09T04:24:44;98865.27;;;16.68;85.38
65872;BME280;52653;50.080;21.992;2022-09-09T04:27:38;98864.86;;;16.70;85.19
65872;BME280;52653;50.080;21.992;2022-09-09T04:30:12;98865.17;;;16.70;85.58
65872;BME280;52653;50.080;21.992;2022-09-09T04:32:58;98860.37;;;16.76;85.51
65872;BME280;52653;50.080;21.992;2022-09-09T04:35:50;98861.89;;;16.78;85.36
65872;BME280;52653;50.080;21.992;2022-09-09T04:38:27;98860.42;;;16.79;85.25
65872;BME280;52653;50.080;21.992;2022-09-09T04:41:11;98865.20;;;16.80;85.08
65872;BME280;52653;50.080;21.992;2022-09-09T04:44:04;98863.39;;;16.75;85.27
65872;BME280;52653;50.080;21.992;2022-09-09T04:46:36;98864.98;;;16.75;85.40
65872;BME280;52653;50.080;21.992;2022-09-09T04:49:13;98867.54;;;16.79;85.56
65872;BME280;52653;50.080;21.992;2022-09-09T04:51:49;98870.13;;;16.84;85.57
65872;BME280;52653;50.080;21.992;2022-09-09T04:54:21;98873.26;;;16.91;85.41
65872;BME280;52653;50.080;21.992;2022-09-09T04:57:13;98877.38;;;16.94;85.21
65872;BME280;52653;50.080;21.992;2022-09-09T05:00:10;98881.84;;;16.97;85.22
65872;BME280;52653;50.080;21.992;2022-09-09T05:03:06;98888.88;;;17.03;85.17
65872;BME280;52653;50.080;21.992;2022-09-09T05:05:50;98888.19;;;17.08;84.87
65872;BME280;52653;50.080;21.992;2022-09-09T05:08:43;98892.21;;;17.13;84.83
65872;BME280;52653;50.080;21.992;2022-09-09T05:11:26;98893.93;;;17.15;84.35
65872;BME280;52653;50.080;21.992;2022-09-09T05:14:19;98901.05;;;17.10;84.01
65872;BME280;52653;50.080;21.992;2022-09-09T05:17:11;98901.30;;;17.12;84.22
65872;BME280;52653;50.080;21.992;2022-09-09T05:19:53;98903.79;;;17.21;84.36
65872;BME280;52653;50.080;21.992;2022-09-09T05:22:25;98903.00;;;17.27;83.93
65872;BME280;52653;50.080;21.992;2022-09-09T05:24:57;98903.08;;;17.30;84.06
65872;BME280;52653;50.080;21.992;2022-09-09T05:27:30;98904.83;;;17.31;83.89
65872;BME280;52653;50.080;21.992;2022-09-09T05:30:03;98905.86;;;17.27;83.66
65872;BME280;52653;50.080;21.992;2022-09-09T05:32:36;98903.91;;;17.22;83.62
65872;BME280;52653;50.080;21.992;2022-09-09T05:35:08;98903.27;;;17.21;83.78
65872;BME280;52653;50.080;21.992;2022-09-09T05:37:41;98904.80;;;17.22;83.59
65872;BME280;52653;50.080;21.992;2022-09-09T05:40:13;98904.83;;;17.26;83.94
65872;BME280;52653;50.080;21.992;2022-09-09T05:42:46;98907.45;;;17.36;83.87
65872;BME280;52653;50.080;21.992;2022-09-09T05:45:20;98910.09;;;17.45;83.76
65872;BME280;52653;50.080;21.992;2022-09-09T05:47:53;98913.48;;;17.49;83.40
65872;BME280;52653;50.080;21.992;2022-09-09T05:50:26;98911.77;;;17.47;83.12
65872;BME280;52653;50.080;21.992;2022-09-09T05:53:03;98915.27;;;17.45;83.04
65872;BME280;52653;50.080;21.992;2022-09-09T05:55:35;98915.84;;;17.44;83.18
65872;BME280;52653;50.080;21.992;2022-09-09T05:58:07;98912.95;;;17.45;83.59
65872;BME280;52653;50.080;21.992;2022-09-09T06:00:40;98910.26;;;17.50;83.57
65872;BME280;52653;50.080;21.992;2022-09-09T06:03:13;98909.85;;;17.51;83.64
65872;BME280;52653;50.080;21.992;2022-09-09T06:06:07;98914.52;;;17.54;83.57
65872;BME280;52653;50.080;21.992;2022-09-09T06:08:52;98918.61;;;17.54;83.44
65872;BME280;52653;50.080;21.992;2022-09-09T06:11:26;98923.05;;;17.58;83.49
65872;BME280;52653;50.080;21.992;2022-09-09T06:13:58;98923.22;;;17.62;83.63
65872;BME280;52653;50.080;21.992;2022-09-09T06:16:31;98926.27;;;17.66;83.31
65872;BME280;52653;50.080;21.992;2022-09-09T06:19:07;98927.96;;;17.73;83.74
65872;BME280;52653;50.080;21.992;2022-09-09T06:21:39;98928.27;;;17.78;83.38
65872;BME280;52653;50.080;21.992;2022-09-09T06:24:12;98928.25;;;17.83;83.48
65872;BME280;52653;50.080;21.992;2022-09-09T06:26:47;98927.09;;;17.94;83.53
65872;BME280;52653;50.080;21.992;2022-09-09T06:29:23;98933.80;;;18.11;83.55
65872;BME280;52653;50.080;21.992;2022-09-09T06:31:55;98937.13;;;18.25;82.91
65872;BME280;52653;50.080;21.992;2022-09-09T06:34:29;98938.50;;;18.34;83.01
65872;BME280;52653;50.080;21.992;2022-09-09T06:37:02;98941.87;;;18.50;82.72
65872;BME280;52653;50.080;21.992;2022-09-09T06:39:48;98942.13;;;18.69;82.81
65872;BME280;52653;50.080;21.992;2022-09-09T06:42:20;98941.29;;;18.88;82.25
65872;BME280;52653;50.080;21.992;2022-09-09T06:44:51;98943.16;;;18.93;81.45
65872;BME280;52653;50.080;21.992;2022-09-09T06:47:49;98942.42;;;19.01;81.76
65872;BME280;52653;50.080;21.992;2022-09-09T06:50:22;98949.86;;;19.10;81.64
65872;BME280;52653;50.080;21.992;2022-09-09T06:52:54;98955.23;;;19.13;81.25
65872;BME280;52653;50.080;21.992;2022-09-09T06:55:30;98956.77;;;19.18;81.69
65872;BME280;52653;50.080;21.992;2022-09-09T06:58:01;98958.68;;;19.26;81.64
65872;BME280;52653;50.080;21.992;2022-09-09T07:00:33;98960.38;;;19.32;81.71
65872;BME280;52653;50.080;21.992;2022-09-09T07:03:16;98964.55;;;19.30;81.80
65872;BME280;52653;50.080;21.992;2022-09-09T07:05:56;98969.89;;;19.34;81.82
65872;BME280;52653;50.080;21.992;2022-09-09T07:08:28;98968.52;;;19.29;81.50
65872;BME280;52653;50.080;21.992;2022-09-09T07:11:05;98972.67;;;19.24;81.63
65872;BME280;52653;50.080;21.992;2022-09-09T07:13:42;98977.06;;;19.29;81.96
65872;BME280;52653;50.080;21.992;2022-09-09T07:16:25;98979.89;;;19.40;81.77
65872;BME280;52653;50.080;21.992;2022-09-09T07:19:01;98981.17;;;19.47;81.45
65872;BME280;52653;50.080;21.992;2022-09-09T07:21:34;98985.66;;;19.54;81.10
65872;BME280;52653;50.080;21.992;2022-09-09T07:24:10;98986.18;;;19.66;80.99
65872;BME280;52653;50.080;21.992;2022-09-09T07:26:46;98987.58;;;19.74;80.33
65872;BME280;52653;50.080;21.992;2022-09-09T07:29:19;98991.77;;;19.79;79.93
65872;BME280;52653;50.080;21.992;2022-09-09T07:31:54;98997.00;;;19.78;79.72
65872;BME280;52653;50.080;21.992;2022-09-09T07:34:29;98997.48;;;19.78;79.58
65872;BME280;52653;50.080;21.992;2022-09-09T07:37:01;98994.56;;;19.80;79.38
65872;BME280;52653;50.080;21.992;2022-09-09T07:39:36;98999.55;;;19.77;79.57
65872;BME280;52653;50.080;21.992;2022-09-09T07:42:08;99000.52;;;19.78;79.45
65872;BME280;52653;50.080;21.992;2022-09-09T07:44:44;99001.66;;;19.84;79.63
65872;BME280;52653;50.080;21.992;2022-09-09T07:47:18;99002.50;;;19.96;79.68
65872;BME280;52653;50.080;21.992;2022-09-09T07:49:52;99006.24;;;20.07;79.02
65872;BME280;52653;50.080;21.992;2022-09-09T07:52:28;99005.77;;;20.23;79.42
65872;BME280;52653;50.080;21.992;2022-09-09T07:55:02;99006.40;;;20.39;78.26
65872;BME280;52653;50.080;21.992;2022-09-09T07:57:35;99003.64;;;20.48;77.54
65872;BME280;52653;50.080;21.992;2022-09-09T08:00:11;99004.82;;;20.60;77.26
65872;BME280;52653;50.080;21.992;2022-09-09T08:02:44;99008.30;;;20.75;76.45
65872;BME280;52653;50.080;21.992;2022-09-09T08:05:17;99006.58;;;21.08;75.66
65872;BME280;52653;50.080;21.992;2022-09-09T08:07:49;99007.63;;;21.28;73.87
65872;BME280;52653;50.080;21.992;2022-09-09T08:10:21;99011.45;;;21.50;73.40
65872;BME280;52653;50.080;21.992;2022-09-09T08:12:57;99011.98;;;21.72;73.04
65872;BME280;52653;50.080;21.992;2022-09-09T08:15:48;99014.13;;;21.91;72.34
65872;BME280;52653;50.080;21.992;2022-09-09T08:18:22;99017.48;;;22.01;70.73
65872;BME280;52653;50.080;21.992;2022-09-09T08:20:54;99019.28;;;22.00;69.48
65872;BME280;52653;50.080;21.992;2022-09-09T08:23:27;99017.39;;;21.90;69.82
65872;BME280;52653;50.080;21.992;2022-09-09T08:26:06;99020.68;;;21.95;70.81
65872;BME280;52653;50.080;21.992;2022-09-09T08:28:40;99023.81;;;21.96;69.99
65872;BME280;52653;50.080;21.992;2022-09-09T08:31:15;99021.15;;;21.93;70.22
65872;BME280;52653;50.080;21.992;2022-09-09T08:33:48;99028.73;;;22.01;69.58
65872;BME280;52653;50.080;21.992;2022-09-09T08:36:25;99030.28;;;21.96;69.03
65872;BME280;52653;50.080;21.992;2022-09-09T08:38:58;99029.20;;;21.87;69.66
65872;BME280;52653;50.080;21.992;2022-09-09T08:41:52;99031.78;;;21.82;69.93
65872;BME280;52653;50.080;21.992;2022-09-09T08:44:46;99031.30;;;21.74;70.08
65872;BME280;52653;50.080;21.992;2022-09-09T08:47:28;99027.33;;;21.72;69.45
65872;BME280;52653;50.080;21.992;2022-09-09T08:50:16;99030.65;;;21.70;69.09
65872;BME280;52653;50.080;21.992;2022-09-09T08:53:02;99022.63;;;21.76;69.51
65872;BME280;52653;50.080;21.992;2022-09-09T08:55:43;99021.45;;;21.88;69.80
65872;BME280;52653;50.080;21.992;2022-09-09T08:58:19;99018.67;;;22.05;67.92
65872;BME280;52653;50.080;21.992;2022-09-09T09:01:02;99016.00;;;22.30;66.70
65872;BME280;52653;50.080;21.992;2022-09-09T09:04:06;99017.98;;;22.48;66.11
65872;BME280;52653;50.080;21.992;2022-09-09T09:06:50;99022.59;;;22.36;64.67
65872;BME280;52653;50.080;21.992;2022-09-09T09:09:35;99022.33;;;22.31;65.79
65872;BME280;52653;50.080;21.992;2022-09-09T09:12:17;99025.25;;;22.37;64.78
65872;BME280;52653;50.080;21.992;2022-09-09T09:14:52;99026.63;;;22.41;64.37
65872;BME280;52653;50.080;21.992;2022-09-09T09:17:28;99018.95;;;22.47;64.67
65872;BME280;52653;50.080;21.992;2022-09-09T09:20:05;99022.52;;;22.46;63.64
65872;BME280;52653;50.080;21.992;2022-09-09T09:22:47;99030.46;;;22.39;64.66
65872;BME280;52653;50.080;21.992;2022-09-09T09:25:23;99028.47;;;22.40;64.87
65872;BME280;52653;50.080;21.992;2022-09-09T09:27:59;99028.36;;;22.32;65.23
65872;BME280;52653;50.080;21.992;2022-09-09T09:30:36;99028.70;;;22.42;65.26
65872;BME280;52653;50.080;21.992;2022-09-09T09:33:17;99031.30;;;22.55;64.24
65872;BME280;52653;50.080;21.992;2022-09-09T09:35:51;99034.30;;;22.65;63.11
65872;BME280;52653;50.080;21.992;2022-09-09T09:38:28;99037.14;;;22.77;62.34
65872;BME280;52653;50.080;21.992;2022-09-09T09:41:42;99031.86;;;22.91;62.12
65872;BME280;52653;50.080;21.992;2022-09-09T09:44:29;99029.21;;;23.08;62.06
65872;BME280;52653;50.080;21.992;2022-09-09T09:47:14;99025.52;;;23.12;60.22
65872;BME280;52653;50.080;21.992;2022-09-09T09:49:55;99028.02;;;23.18;61.14
65872;BME280;52653;50.080;21.992;2022-09-09T09:52:56;99030.25;;;23.20;60.58
65872;BME280;52653;50.080;21.992;2022-09-09T09:55:30;99028.41;;;23.18;59.93
65872;BME280;52653;50.080;21.992;2022-09-09T09:58:06;99032.52;;;23.23;58.93
65872;BME280;52653;50.080;21.992;2022-09-09T10:00:59;99036.27;;;23.38;59.10
65872;BME280;52653;50.080;21.992;2022-09-09T10:03:34;99039.27;;;23.50;58.94
65872;BME280;52653;50.080;21.992;2022-09-09T10:06:09;99041.84;;;23.55;57.55
65872;BME280;52653;50.080;21.992;2022-09-09T10:08:50;99042.05;;;23.48;57.73
65872;BME280;52653;50.080;21.992;2022-09-09T10:11:46;99040.35;;;23.50;58.30
65872;BME280;52653;50.080;21.992;2022-09-09T10:14:27;99043.77;;;23.70;55.98
65872;BME280;52653;50.080;21.992;2022-09-09T10:17:23;99032.59;;;24.04;56.14
65872;BME280;52653;50.080;21.992;2022-09-09T10:20:27;99031.02;;;24.30;54.58
65872;BME280;52653;50.080;21.992;2022-09-09T10:23:13;99028.13;;;24.55;54.57
65872;BME280;52653;50.080;21.992;2022-09-09T10:26:22;99023.84;;;24.83;54.10
65872;BME280;52653;50.080;21.992;2022-09-09T10:29:34;99016.04;;;25.16;53.29
65872;BME280;52653;50.080;21.992;2022-09-09T10:32:24;99019.39;;;25.27;52.70
65872;BME280;52653;50.080;21.992;2022-09-09T10:35:11;99021.30;;;25.15;51.89
65872;BME280;52653;50.080;21.992;2022-09-09T10:38:14;99023.77;;;24.97;51.99
65872;BME280;52653;50.080;21.992;2022-09-09T10:41:10;99023.23;;;24.95;52.82
65872;BME280;52653;50.080;21.992;2022-09-09T10:44:20;99022.45;;;24.98;52.34
65872;BME280;52653;50.080;21.992;2022-09-09T10:50:12;99026.67;;;25.25;52.03
65872;BME280;52653;50.080;21.992;2022-09-09T10:53:06;99027.73;;;25.41;50.81
65872;BME280;52653;50.080;21.992;2022-09-09T10:55:45;99024.61;;;25.37;50.07
65872;BME280;52653;50.080;21.992;2022-09-09T10:58:24;99025.52;;;25.37;50.01
65872;BME280;52653;50.080;21.992;2022-09-09T11:01:21;99026.27;;;25.36;50.38
65872;BME280;52653;50.080;21.992;2022-09-09T11:04:17;99026.30;;;25.25;50.18
65872;BME280;52653;50.080;21.992;2022-09-09T11:06:55;99028.80;;;25.15;50.89
65872;BME280;52653;50.080;21.992;2022-09-09T11:09:30;99036.52;;;25.03;50.91
65872;BME280;52653;50.080;21.992;2022-09-09T11:12:24;99041.15;;;24.85;51.11
65872;BME280;52653;50.080;21.992;2022-09-09T11:15:02;99040.42;;;24.75;51.00
65872;BME280;52653;50.080;21.992;2022-09-09T11:17:39;99042.30;;;24.60;51.61
65872;BME280;52653;50.080;21.992;2022-09-09T11:20:34;99047.34;;;24.55;52.03
65872;BME280;52653;50.080;21.992;2022-09-09T11:23:32;99050.58;;;24.54;52.39
65872;BME280;52653;50.080;21.992;2022-09-09T11:26:35;99050.90;;;24.69;51.91
65872;BME280;52653;50.080;21.992;2022-09-09T11:30:02;99052.09;;;24.93;51.44
65872;BME280;52653;50.080;21.992;2022-09-09T11:32:58;99055.95;;;25.02;50.40
65872;BME280;52653;50.080;21.992;2022-09-09T11:35:41;99055.86;;;25.06;50.87
65872;BME280;52653;50.080;21.992;2022-09-09T11:38:44;99059.64;;;25.03;50.67
65872;BME280;52653;50.080;21.992;2022-09-09T11:41:17;99062.42;;;25.02;51.83
65872;BME280;52653;50.080;21.992;2022-09-09T11:44:18;99061.68;;;25.02;52.14
65872;BME280;52653;50.080;21.992;2022-09-09T11:47:00;99061.40;;;25.01;51.76
65872;BME280;52653;50.080;21.992;2022-09-09T11:49:42;99058.27;;;24.94;51.82
65872;BME280;52653;50.080;21.992;2022-09-09T11:52:22;99063.77;;;24.98;53.69
65872;BME280;52653;50.080;21.992;2022-09-09T11:54:57;99064.04;;;25.12;54.79
65872;BME280;52653;50.080;21.992;2022-09-09T11:57:35;99061.89;;;25.28;55.09
65872;BME280;52653;50.080;21.992;2022-09-09T12:00:31;99060.27;;;25.40;54.33
65872;BME280;52653;50.080;21.992;2022-09-09T12:03:04;99061.48;;;25.49;54.05
65872;BME280;52653;50.080;21.992;2022-09-09T12:05:47;99056.95;;;25.44;53.51
65872;BME280;52653;50.080;21.992;2022-09-09T12:08:27;99056.77;;;25.39;53.86
65872;BME280;52653;50.080;21.992;2022-09-09T12:11:00;99054.71;;;25.37;54.13
65872;BME280;52653;50.080;21.992;2022-09-09T12:13:33;99051.35;;;25.37;54.31
65872;BME280;52653;50.080;21.992;2022-09-09T12:16:35;99045.29;;;25.44;54.43
65872;BME280;52653;50.080;21.992;2022-09-09T12:19:16;99044.08;;;25.63;54.17
65872;BME280;52653;50.080;21.992;2022-09-09T12:22:00;99037.23;;;25.76;53.10
65872;BME280;52653;50.080;21.992;2022-09-09T12:25:03;99040.74;;;25.85;53.13
65872;BME280;52653;50.080;21.992;2022-09-09T12:28:08;99037.63;;;25.81;52.52
65872;BME280;52653;50.080;21.992;2022-09-09T12:30:47;99037.73;;;25.66;52.67
65872;BME280;52653;50.080;21.992;2022-09-09T12:33:41;99035.14;;;25.55;53.25
65872;BME280;52653;50.080;21.992;2022-09-09T12:36:21;99038.60;;;25.62;54.00
65872;BME280;52653;50.080;21.992;2022-09-09T12:38:54;99038.61;;;25.74;53.92
65872;BME280;52653;50.080;21.992;2022-09-09T12:41:28;99033.23;;;25.89;54.72
65872;BME280;52653;50.080;21.992;2022-09-09T12:44:20;99033.05;;;26.20;54.06
65872;BME280;52653;50.080;21.992;2022-09-09T12:46:53;99034.51;;;26.42;52.27
65872;BME280;52653;50.080;21.992;2022-09-09T12:49:31;99028.25;;;26.58;50.75
65872;BME280;52653;50.080;21.992;2022-09-09T12:52:08;99022.70;;;26.77;50.78
65872;BME280;52653;50.080;21.992;2022-09-09T12:54:46;99016.79;;;26.94;50.04
65872;BME280;52653;50.080;21.992;2022-09-09T12:57:40;99012.67;;;27.13;49.83
65872;BME280;52653;50.080;21.992;2022-09-09T13:00:17;99010.39;;;27.26;49.04
65872;BME280;52653;50.080;21.992;2022-09-09T13:02:53;99014.21;;;27.27;48.65
65872;BME280;52653;50.080;21.992;2022-09-09T13:05:27;99017.96;;;27.30;48.44
65872;BME280;52653;50.080;21.992;2022-09-09T13:08:04;99017.51;;;27.27;48.56
65872;BME280;52653;50.080;21.992;2022-09-09T13:10:59;99018.13;;;27.24;48.45
65872;BME280;52653;50.080;21.992;2022-09-09T13:13:51;99019.41;;;27.12;48.70
65872;BME280;52653;50.080;21.992;2022-09-09T13:16:27;99024.68;;;27.02;48.51
65872;BME280;52653;50.080;21.992;2022-09-09T13:19:10;99026.89;;;26.89;48.42
65872;BME280;52653;50.080;21.992;2022-09-09T13:21:45;99027.11;;;26.71;49.11
65872;BME280;52653;50.080;21.992;2022-09-09T13:24:32;99029.79;;;26.52;49.52
65872;BME280;52653;50.080;21.992;2022-09-09T13:27:05;99035.85;;;26.41;49.96
65872;BME280;52653;50.080;21.992;2022-09-09T13:29:54;99032.01;;;26.25;49.91
65872;BME280;52653;50.080;21.992;2022-09-09T13:32:28;99030.13;;;26.04;50.44
65872;BME280;52653;50.080;21.992;2022-09-09T13:35:02;99029.73;;;25.85;50.77
65872;BME280;52653;50.080;21.992;2022-09-09T13:37:36;99029.38;;;25.70;51.21
65872;BME280;52653;50.080;21.992;2022-09-09T13:40:19;99033.77;;;25.62;51.78
65872;BME280;52653;50.080;21.992;2022-09-09T13:42:55;99032.08;;;25.55;52.01
65872;BME280;52653;50.080;21.992;2022-09-09T13:45:28;99029.98;;;25.51;51.47
65872;BME280;52653;50.080;21.992;2022-09-09T13:48:10;99026.07;;;25.54;51.31
65872;BME280;52653;50.080;21.992;2022-09-09T13:50:55;99025.05;;;25.66;50.95
65872;BME280;52653;50.080;21.992;2022-09-09T13:53:28;99019.77;;;25.76;50.97
65872;BME280;52653;50.080;21.992;2022-09-09T13:56:01;99011.90;;;25.84;51.40
65872;BME280;52653;50.080;21.992;2022-09-09T13:58:33;99008.48;;;25.88;51.47
65872;BME280;52653;50.080;21.992;2022-09-09T14:01:05;99012.83;;;25.90;51.42
65872;BME280;52653;50.080;21.992;2022-09-09T14:03:37;99014.21;;;25.94;51.94
65872;BME280;52653;50.080;21.992;2022-09-09T14:06:09;99015.11;;;25.94;51.89
65872;BME280;52653;50.080;21.992;2022-09-09T14:08:41;99014.01;;;25.84;52.01
65872;BME280;52653;50.080;21.992;2022-09-09T14:11:14;99015.48;;;25.74;51.93
65872;BME280;52653;50.080;21.992;2022-09-09T14:13:46;99012.19;;;25.64;52.32
65872;BME280;52653;50.080;21.992;2022-09-09T14:16:20;99005.85;;;25.53;52.38
65872;BME280;52653;50.080;21.992;2022-09-09T14:18:56;99002.27;;;25.40;52.77
65872;BME280;52653;50.080;21.992;2022-09-09T14:21:30;99002.56;;;25.51;53.79
65872;BME280;52653;50.080;21.992;2022-09-09T14:24:03;98996.86;;;25.75;53.36